Terminal Aerodrome Forecast
Issued by NWS

Home | Current Version | Previous Version | Graphics & Text | Print | Product List | Glossary On
Versions: 1 2 3 4 5 6 7 8 9 10 11 12 13 14 15 16 17 18 19 20
132
FTUS43 KICT 172338
TAFHUT
TAF
KHUT 172338Z 1800/1824 29005KT P6SM SKC
     FM180100 22004KT P6SM FEW250
     FM181400 17005KT P6SM -RA OVC080
     FM181800 19011KT P6SM BKN070=

USA.gov is the U.S. government's official web portal to all federal, state and local government web resources and services.